Time;durP1;ratioP1;P1;durP2;ratioP2;P2;SDS_P1;SDS_P2;PMS_P1;PMS_P2;Temp;Humidity;BMP_temperature;BMP_pressure;BME280_temperature;BME280_humidity;BME280_pressure;Samples;Min_cycle;Max_cycle;Signal;HPM_P1;HPM_P2
2022/07/25 00:01:27;;;;;;;4.13;3.60;;;20.90;99.90;;;;;;5035229;28;20192;-72
2022/07/25 00:03:52;;;;;;;4.87;4.33;;;20.90;99.90;;;;;;5035155;28;20207;-73
2022/07/25 00:06:18;;;;;;;3.53;3.23;;;20.90;99.90;;;;;;5034814;28;20172;-73
2022/07/25 00:08:43;;;;;;;4.73;4.33;;;20.90;99.90;;;;;;5035053;28;20167;-72
2022/07/25 00:11:09;;;;;;;7.40;4.67;;;20.90;99.90;;;;;;5034954;28;20191;-72
2022/07/25 00:13:35;;;;;;;6.67;4.90;;;20.80;99.90;;;;;;5034615;28;20186;-72
2022/07/25 00:16:00;;;;;;;6.57;4.90;;;20.90;99.90;;;;;;5032487;28;20171;-72
2022/07/25 00:18:26;;;;;;;5.77;5.03;;;20.80;99.90;;;;;;5034467;28;20163;-72
2022/07/25 00:20:52;;;;;;;4.43;4.03;;;20.80;99.90;;;;;;5034595;28;20321;-71
2022/07/25 00:23:17;;;;;;;7.13;4.40;;;20.80;99.90;;;;;;5033544;28;20553;-72
2022/07/25 00:25:43;;;;;;;6.00;4.10;;;20.80;99.90;;;;;;5034379;28;20403;-72
2022/07/25 00:28:08;;;;;;;9.27;4.53;;;20.80;99.90;;;;;;5034469;28;20247;-71
2022/07/25 00:30:34;;;;;;;6.17;4.73;;;20.80;99.90;;;;;;5034563;28;20195;-72
2022/07/25 00:33:00;;;;;;;4.53;3.80;;;20.70;99.90;;;;;;5034625;28;20198;-72
2022/07/25 00:35:25;;;;;;;4.57;4.10;;;20.70;99.90;;;;;;5034350;28;20789;-72
2022/07/25 00:37:51;;;;;;;6.00;4.40;;;20.70;99.90;;;;;;5034416;28;20177;-72
2022/07/25 00:40:16;;;;;;;6.60;5.33;;;20.70;99.90;;;;;;5034217;28;20195;-72
2022/07/25 00:42:42;;;;;;;4.27;3.87;;;20.70;99.90;;;;;;5033131;28;20591;-72
2022/07/25 00:45:08;;;;;;;5.30;3.47;;;20.70;99.90;;;;;;5033952;28;20199;-73
2022/07/25 00:47:33;;;;;;;3.93;3.43;;;20.60;99.90;;;;;;5034408;28;20171;-72
2022/07/25 00:49:59;;;;;;;4.80;4.00;;;20.60;99.90;;;;;;5034266;28;20469;-72
2022/07/25 00:52:24;;;;;;;5.93;4.23;;;20.60;99.90;;;;;;5034068;28;20563;-72
2022/07/25 00:54:50;;;;;;;7.60;4.80;;;20.60;99.90;;;;;;5033985;28;20168;-71
2022/07/25 00:57:16;;;;;;;8.40;4.40;;;20.50;99.90;;;;;;5034056;28;20172;-72
2022/07/25 00:59:41;;;;;;;5.23;3.70;;;20.50;99.90;;;;;;5034153;28;20222;-73
2022/07/25 01:02:07;;;;;;;4.27;3.87;;;20.50;99.90;;;;;;5034007;28;20184;-73
2022/07/25 01:04:33;;;;;;;8.77;5.03;;;20.50;99.90;;;;;;5033706;28;20199;-71
2022/07/25 01:06:59;;;;;;;5.60;4.40;;;20.40;99.90;;;;;;5033892;28;20877;-71
2022/07/25 01:09:25;;;;;;;4.73;4.33;;;20.50;99.90;;;;;;5033953;28;20233;-71
2022/07/25 01:11:51;;;;;;;4.43;3.67;;;20.50;99.90;;;;;;5033849;28;20402;-73
2022/07/25 01:14:16;;;;;;;4.80;4.03;;;20.50;99.90;;;;;;5033605;28;20406;-72
2022/07/25 01:16:42;;;;;;;6.53;3.27;;;20.60;99.90;;;;;;5033823;28;20174;-71
2022/07/25 01:19:07;;;;;;;3.80;3.40;;;20.70;99.90;;;;;;5033691;28;20179;-71
2022/07/25 01:21:38;;;;;;;4.37;3.90;;;20.80;99.90;;;;;;5033692;28;20172;-73
2022/07/25 01:24:04;;;;;;;5.67;5.13;;;20.80;99.90;;;;;;5033608;28;20219;-73
2022/07/25 01:26:30;;;;;;;4.73;4.30;;;20.90;99.90;;;;;;5033373;28;20398;-72
2022/07/25 01:28:56;;;;;;;4.70;4.30;;;20.90;99.90;;;;;;5033534;28;20395;-72
2022/07/25 01:31:22;;;;;;;4.43;3.40;;;21.00;99.90;;;;;;5033454;28;20862;-73
2022/07/25 01:33:48;;;;;;;4.00;3.60;;;21.00;99.90;;;;;;5033191;28;20485;-72
2022/07/25 01:36:13;;;;;;;4.77;4.27;;;21.00;99.90;;;;;;5033076;28;20202;-72
2022/07/25 01:38:39;;;;;;;4.70;3.70;;;21.00;99.90;;;;;;5033404;28;20305;-72
2022/07/25 01:41:05;;;;;;;3.97;3.60;;;21.00;99.90;;;;;;5033234;28;20617;-72
2022/07/25 01:43:30;;;;;;;9.30;4.83;;;21.00;99.90;;;;;;5033167;28;20582;-72
2022/07/25 01:45:56;;;;;;;4.63;4.00;;;21.10;99.90;;;;;;5033021;28;20167;-73
2022/07/25 01:48:21;;;;;;;6.87;4.37;;;21.10;99.90;;;;;;5033192;28;20211;-72
2022/07/25 01:50:47;;;;;;;4.77;4.30;;;21.10;99.90;;;;;;5033116;28;20188;-73
2022/07/25 01:53:13;;;;;;;11.53;4.70;;;21.20;99.90;;;;;;5033002;28;20619;-73
2022/07/25 01:55:38;;;;;;;3.97;3.67;;;21.20;99.90;;;;;;5032798;28;20174;-72
2022/07/25 01:58:04;;;;;;;4.63;4.20;;;21.20;99.90;;;;;;5033031;28;20175;-72
2022/07/25 02:00:29;;;;;;;4.10;3.40;;;21.20;99.90;;;;;;5032923;28;20192;-72
2022/07/25 02:05:39;;;;;;;4.37;3.63;;;21.10;99.90;;;;;;5032770;28;20243;-72
2022/07/25 02:08:05;;;;;;;4.90;4.10;;;21.10;99.90;;;;;;5032788;28;20904;-73
2022/07/25 02:10:31;;;;;;;4.07;3.67;;;21.10;99.90;;;;;;5032841;28;20191;-72
2022/07/25 02:12:57;;;;;;;5.83;4.70;;;21.10;99.90;;;;;;5032753;28;20182;-72
2022/07/25 02:15:22;;;;;;;6.33;4.50;;;21.10;99.90;;;;;;5032239;28;20402;-73
2022/07/25 02:17:48;;;;;;;5.50;4.83;;;21.10;99.90;;;;;;5032831;28;20198;-72
2022/07/25 02:20:13;;;;;;;4.60;4.00;;;21.10;99.90;;;;;;5032529;28;20547;-72
2022/07/25 02:22:39;;;;;;;6.00;4.20;;;21.00;99.90;;;;;;5032534;28;20176;-72
2022/07/25 02:25:05;;;;;;;5.43;4.40;;;21.10;99.90;;;;;;5032140;28;20199;-73
2022/07/25 02:27:30;;;;;;;5.20;4.70;;;21.00;99.90;;;;;;5032573;28;20175;-73
2022/07/25 02:29:57;;;;;;;5.60;4.77;;;21.00;99.90;;;;;;5032288;28;20788;-73
2022/07/25 02:32:22;;;;;;;5.53;4.40;;;21.00;99.90;;;;;;5032628;28;20171;-73
2022/07/25 02:34:48;;;;;;;5.03;4.13;;;20.80;99.90;;;;;;5031957;28;20406;-73
2022/07/25 02:37:13;;;;;;;6.13;4.10;;;20.80;99.90;;;;;;5032442;28;20176;-72
2022/07/25 02:39:39;;;;;;;3.97;3.67;;;20.70;99.90;;;;;;5032165;28;20194;-72
2022/07/25 02:42:04;;;;;;;6.23;4.20;;;20.70;99.90;;;;;;5032243;28;20633;-71
2022/07/25 02:44:30;;;;;;;3.73;3.40;;;20.60;99.90;;;;;;5031608;28;20254;-72
2022/07/25 02:46:55;;;;;;;4.57;4.17;;;20.50;99.90;;;;;;5031892;28;20171;-71
2022/07/25 02:49:21;;;;;;;4.43;3.40;;;20.50;99.90;;;;;;5032024;28;20606;-71
2022/07/25 02:51:46;;;;;;;4.60;3.50;;;20.50;99.90;;;;;;5032035;28;20648;-72
2022/07/25 02:54:12;;;;;;;5.57;4.07;;;20.40;99.90;;;;;;5030651;28;20187;-73
2022/07/25 02:56:38;;;;;;;5.47;4.50;;;20.30;99.90;;;;;;5032026;28;20290;-73
2022/07/25 02:59:03;;;;;;;4.73;4.23;;;20.30;99.90;;;;;;5032000;28;20250;-72
2022/07/25 03:01:29;;;;;;;6.00;4.50;;;20.30;99.90;;;;;;5031711;28;20249;-72
2022/07/25 03:03:55;;;;;;;5.47;3.80;;;20.10;99.90;;;;;;5030651;28;20306;-71
2022/07/25 03:06:20;;;;;;;5.53;3.90;;;20.10;99.90;;;;;;5031667;28;20599;-72
2022/07/25 03:08:46;;;;;;;5.10;3.87;;;20.10;99.90;;;;;;5031942;28;20198;-73
2022/07/25 03:11:12;;;;;;;5.13;4.37;;;20.00;99.90;;;;;;5031785;28;20564;-73
2022/07/25 03:13:38;;;;;;;5.60;4.43;;;20.00;99.90;;;;;;5031952;28;20202;-73
2022/07/25 03:16:04;;;;;;;6.43;4.50;;;20.00;99.90;;;;;;5046686;28;20825;-73
2022/07/25 03:18:29;;;;;;;6.33;4.77;;;20.00;99.90;;;;;;5031850;28;20254;-72
2022/07/25 03:20:55;;;;;;;5.00;4.30;;;19.90;99.90;;;;;;5031329;28;20509;-73
2022/07/25 03:23:21;;;;;;;5.70;4.27;;;19.90;99.90;;;;;;5031656;28;20184;-71
2022/07/25 03:25:46;;;;;;;5.27;4.00;;;19.90;99.90;;;;;;5031368;28;20224;-72
2022/07/25 03:28:12;;;;;;;5.93;4.93;;;19.90;99.90;;;;;;5031752;28;20648;-72
2022/07/25 03:30:37;;;;;;;5.20;4.30;;;19.80;99.90;;;;;;5031589;28;20234;-73
2022/07/25 03:33:03;;;;;;;4.23;3.50;;;19.80;99.90;;;;;;5047134;28;20173;-72
2022/07/25 03:35:28;;;;;;;4.60;3.80;;;19.80;99.90;;;;;;5031402;28;20175;-72
2022/07/25 03:37:54;;;;;;;7.13;4.30;;;19.80;99.90;;;;;;5031518;28;20175;-72
2022/07/25 03:40:19;;;;;;;4.90;4.37;;;19.80;99.90;;;;;;5046863;28;20198;-72
2022/07/25 03:42:45;;;;;;;5.10;4.43;;;19.80;99.90;;;;;;5031626;28;20301;-72
2022/07/25 03:45:11;;;;;;;5.73;4.27;;;19.80;99.90;;;;;;5030832;28;20199;-72
2022/07/25 03:47:36;;;;;;;4.90;3.90;;;19.80;99.90;;;;;;5031597;28;20167;-72
2022/07/25 03:50:02;;;;;;;8.73;3.87;;;19.80;99.90;;;;;;5031479;28;20218;-73
2022/07/25 03:52:28;;;;;;;5.13;4.20;;;19.80;99.90;;;;;;5031434;28;20211;-73
2022/07/25 03:54:53;;;;;;;5.40;4.13;;;19.80;99.90;;;;;;5031322;28;20406;-72
2022/07/25 03:57:19;;;;;;;5.20;3.80;;;19.80;99.90;;;;;;5033734;28;20171;-72
2022/07/25 03:59:44;;;;;;;5.47;4.97;;;19.80;99.90;;;;;;5035219;28;20192;-72
2022/07/25 04:02:10;;;;;;;6.90;4.70;;;19.80;99.90;;;;;;5033897;28;20175;-72
2022/07/25 04:04:35;;;;;;;4.70;3.97;;;19.80;99.90;;;;;;5034857;28;20195;-72
2022/07/25 04:07:01;;;;;;;5.13;3.80;;;19.90;99.90;;;;;;5035104;28;20155;-72
2022/07/25 04:09:26;;;;;;;5.13;3.80;;;19.90;99.90;;;;;;5033742;28;20873;-72
2022/07/25 04:11:52;;;;;;;4.40;3.67;;;19.90;99.90;;;;;;5035028;28;20164;-73
2022/07/25 04:14:17;;;;;;;4.53;3.37;;;20.00;99.90;;;;;;5034731;28;20613;-72
2022/07/25 04:16:43;;;;;;;3.87;3.47;;;20.00;99.90;;;;;;5034881;28;20167;-72
2022/07/25 04:19:09;;;;;;;9.23;4.70;;;20.00;99.90;;;;;;5034837;28;20191;-72
2022/07/25 04:21:34;;;;;;;5.57;3.80;;;20.00;99.90;;;;;;5034766;28;20184;-72
2022/07/25 04:24:00;;;;;;;8.90;4.80;;;20.00;99.90;;;;;;5034421;28;20203;-72
2022/07/25 04:26:26;;;;;;;4.43;3.60;;;20.00;99.90;;;;;;5034375;28;20155;-72
2022/07/25 04:28:51;;;;;;;5.37;4.07;;;20.10;99.90;;;;;;5034756;28;20247;-73
2022/07/25 04:31:17;;;;;;;5.63;3.90;;;20.20;99.90;;;;;;5034489;28;20217;-71
2022/07/25 04:33:43;;;;;;;4.50;3.17;;;20.20;99.90;;;;;;5034654;28;20219;-72
2022/07/25 04:36:09;;;;;;;6.17;4.27;;;20.30;99.90;;;;;;5034329;28;20198;-72
2022/07/25 04:38:35;;;;;;;11.00;5.27;;;20.40;99.90;;;;;;5034483;28;20434;-72
2022/07/25 04:41:00;;;;;;;5.60;4.70;;;20.40;99.90;;;;;;5034506;28;20457;-72
2022/07/25 04:43:26;;;;;;;4.93;3.90;;;20.60;99.90;;;;;;5034372;28;20167;-71
2022/07/25 04:45:52;;;;;;;6.07;4.13;;;20.60;99.90;;;;;;5034132;28;20525;-73
2022/07/25 04:48:18;;;;;;;4.87;4.07;;;20.80;99.90;;;;;;5034300;28;20206;-73
2022/07/25 04:50:44;;;;;;;5.23;3.93;;;20.90;99.90;;;;;;5034214;28;20998;-72
2022/07/25 04:53:09;;;;;;;6.43;4.63;;;21.10;99.90;;;;;;5034166;28;20185;-73
2022/07/25 04:55:37;;;;;;;5.73;3.80;;;21.20;99.90;;;;;;5033970;28;20895;-72
2022/07/25 04:58:03;;;;;;;4.30;3.90;;;21.40;99.90;;;;;;5034156;28;20198;-72
2022/07/25 05:00:28;;;;;;;4.30;3.90;;;21.50;99.90;;;;;;5034070;28;20454;-73
2022/07/25 05:02:54;;;;;;;6.00;4.23;;;21.60;99.90;;;;;;5034040;28;20176;-72
2022/07/25 05:05:20;;;;;;;5.40;4.03;;;21.80;99.90;;;;;;5033561;28;20195;-72
2022/07/25 05:07:45;;;;;;;4.60;4.10;;;21.80;99.90;;;;;;5033572;28;20217;-73
2022/07/25 05:10:11;;;;;;;5.33;4.83;;;22.00;99.90;;;;;;5033709;28;20271;-73
2022/07/25 05:12:37;;;;;;;4.90;4.30;;;22.10;99.90;;;;;;5033952;28;20170;-73
2022/07/25 05:15:04;;;;;;;4.70;4.20;;;22.30;99.90;;;;;;5033529;28;20167;-73
2022/07/25 05:17:30;;;;;;;6.00;4.80;;;22.30;99.90;;;;;;5033799;28;20577;-73
2022/07/25 05:19:57;;;;;;;11.27;8.47;;;22.40;99.90;;;;;;5033664;28;20513;-73
2022/07/25 05:22:23;;;;;;;7.20;4.50;;;22.50;99.90;;;;;;5033775;28;20164;-72
2022/07/25 05:24:48;;;;;;;5.10;4.17;;;22.60;99.90;;;;;;5033370;28;20457;-73
2022/07/25 05:27:14;;;;;;;6.30;4.70;;;22.60;99.90;;;;;;5033818;28;20206;-73
2022/07/25 05:29:39;;;;;;;5.10;4.60;;;22.70;99.90;;;;;;5032208;28;20207;-72
2022/07/25 05:32:05;;;;;;;5.70;4.33;;;22.80;99.90;;;;;;5033555;28;20245;-72
2022/07/25 05:34:30;;;;;;;5.47;4.97;;;22.80;99.90;;;;;;5033185;28;20625;-72
2022/07/25 05:36:56;;;;;;;4.47;4.03;;;22.90;99.90;;;;;;5033458;28;20598;-72
2022/07/25 05:39:21;;;;;;;5.50;4.60;;;22.80;99.90;;;;;;5033261;28;20637;-72
2022/07/25 05:41:47;;;;;;;5.63;4.53;;;22.90;99.90;;;;;;5033308;28;20163;-72
2022/07/25 05:44:12;;;;;;;9.80;5.77;;;23.00;99.90;;;;;;5033098;28;20192;-72
2022/07/25 05:46:38;;;;;;;5.00;3.90;;;23.00;99.90;;;;;;5033021;28;20169;-72
2022/07/25 05:49:03;;;;;;;3.90;3.53;;;23.10;99.90;;;;;;5033157;28;20170;-73
2022/07/25 05:51:29;;;;;;;6.73;3.63;;;23.20;99.90;;;;;;5032933;28;20191;-72
2022/07/25 05:53:54;;;;;;;4.90;4.00;;;23.30;99.90;;;;;;5033146;28;20179;-73
2022/07/25 05:56:20;;;;;;;5.37;4.07;;;23.50;99.90;;;;;;5032770;28;20167;-73
2022/07/25 05:58:46;;;;;;;7.10;4.53;;;23.70;99.90;;;;;;5033090;28;20178;-73
2022/07/25 06:01:14;;;;;;;4.20;3.80;;;23.90;99.90;;;;;;5032725;28;20314;-73
2022/07/25 06:03:40;;;;;;;5.13;4.30;;;24.00;99.90;;;;;;5032875;28;20461;-72
2022/07/25 06:06:07;;;;;;;4.70;4.20;;;24.30;99.90;;;;;;5032556;28;20406;-73
2022/07/25 06:08:36;;;;;;;4.53;3.70;;;24.50;99.90;;;;;;5032828;28;20408;-72
2022/07/25 06:11:06;;;;;;;5.07;4.57;;;24.80;99.90;;;;;;5032837;28;20502;-73
2022/07/25 06:13:32;;;;;;;6.00;4.70;;;25.20;99.90;;;;;;5048129;28;20505;-72
2022/07/25 06:15:58;;;;;;;4.57;4.03;;;25.70;99.90;;;;;;5032287;28;20876;-72
2022/07/25 06:18:24;;;;;;;4.07;3.20;;;26.20;99.90;;;;;;5032800;28;20497;-73
2022/07/25 06:20:50;;;;;;;4.50;4.10;;;26.70;99.90;;;;;;5031677;28;20653;-73
2022/07/25 06:23:16;;;;;;;4.23;3.80;;;27.10;99.90;;;;;;5032510;28;20402;-72
2022/07/25 06:25:42;;;;;;;5.43;4.40;;;27.40;99.90;;;;;;5032187;28;20708;-72
2022/07/25 06:28:07;;;;;;;6.60;4.60;;;27.80;99.90;;;;;;5032500;28;20460;-73
2022/07/25 06:30:33;;;;;;;4.20;3.90;;;28.30;99.90;;;;;;5032286;28;20187;-73
2022/07/25 06:32:59;;;;;;;3.60;3.30;;;28.70;99.90;;;;;;5032382;28;20164;-73
2022/07/25 06:35:24;;;;;;;4.80;3.80;;;29.20;99.90;;;;;;5032104;28;20170;-73
2022/07/25 06:37:50;;;;;;;4.60;3.83;;;29.60;99.90;;;;;;5032283;28;20168;-73
2022/07/25 06:40:15;;;;;;;4.27;3.87;;;29.80;99.90;;;;;;5032343;28;20195;-73
2022/07/25 06:42:43;;;;;;;4.80;4.40;;;30.00;99.90;;;;;;5030800;28;20262;-74
2022/07/25 06:45:09;;;;;;;4.10;3.80;;;30.10;99.90;;;;;;5031857;28;20199;-74
2022/07/25 06:47:36;;;;;;;5.00;4.40;;;30.20;99.90;;;;;;5032076;28;20923;-73
2022/07/25 06:50:02;;;;;;;5.70;3.87;;;30.30;96.10;;;;;;5032026;28;20430;-73
2022/07/25 06:52:27;;;;;;;4.07;3.67;;;30.20;94.40;;;;;;5031886;28;20428;-74
2022/07/25 06:54:53;;;;;;;4.60;3.83;;;30.10;94.90;;;;;;5047136;28;20407;-73
2022/07/25 06:57:18;;;;;;;4.33;3.90;;;29.90;94.20;;;;;;5032123;28;20178;-73
2022/07/25 06:59:44;;;;;;;5.23;4.50;;;29.60;94.40;;;;;;5030730;28;20688;-73
2022/07/25 07:02:11;;;;;;;3.73;3.43;;;29.60;94.00;;;;;;5031980;28;20168;-74
2022/07/25 07:04:37;;;;;;;4.63;4.13;;;29.50;93.20;;;;;;5031662;28;20979;-74
2022/07/25 07:07:02;;;;;;;4.60;3.50;;;29.70;94.00;;;;;;5031939;28;20413;-73
2022/07/25 07:09:28;;;;;;;5.13;4.70;;;29.90;94.60;;;;;;5031846;28;20338;-74
2022/07/25 07:11:53;;;;;;;4.77;4.07;;;29.80;94.60;;;;;;5047193;28;20190;-73
2022/07/25 07:14:19;;;;;;;3.80;3.50;;;29.60;94.10;;;;;;5031508;28;20534;-74
2022/07/25 07:16:44;;;;;;;3.83;3.53;;;29.80;95.60;;;;;;5032002;28;20591;-73
2022/07/25 07:19:10;;;;;;;3.67;3.37;;;30.10;95.40;;;;;;5031811;28;20163;-74
2022/07/25 07:21:36;;;;;;;4.67;4.13;;;30.50;94.50;;;;;;5031919;28;20195;-73
2022/07/25 07:24:02;;;;;;;5.97;4.40;;;31.30;93.30;;;;;;5031807;28;20199;-74
2022/07/25 07:26:27;;;;;;;5.33;4.43;;;31.90;89.40;;;;;;5031666;28;20394;-74
2022/07/25 07:28:54;;;;;;;5.73;4.10;;;32.20;88.70;;;;;;5031690;28;20514;-74
2022/07/25 07:31:20;;;;;;;6.10;3.67;;;32.30;86.80;;;;;;5032439;28;20214;-74
2022/07/25 07:33:46;;;;;;;4.67;4.17;;;32.10;84.90;;;;;;5035779;28;20823;-73
2022/07/25 07:36:11;;;;;;;4.63;3.90;;;31.80;82.20;;;;;;5035450;28;20195;-73
2022/07/25 07:38:37;;;;;;;4.47;3.33;;;31.80;82.40;;;;;;5035672;28;20209;-73
2022/07/25 07:41:02;;;;;;;6.27;5.00;;;32.00;83.40;;;;;;5035634;28;20672;-73
2022/07/25 07:43:30;;;;;;;4.40;4.00;;;32.10;80.60;;;;;;5034351;28;20163;-73
2022/07/25 07:46:00;;;;;;;4.57;4.17;;;32.20;79.30;;;;;;5035289;28;20651;-73
2022/07/25 07:48:32;;;;;;;4.67;3.97;;;32.00;80.40;;;;;;5035417;28;20862;-73
2022/07/25 07:51:00;;;;;;;5.20;4.73;;;31.70;79.80;;;;;;5035411;28;20791;-72
2022/07/25 07:55:42;;;;;;;3.43;3.13;;;31.50;79.70;;;;;;5035349;28;20552;-73
2022/07/25 07:56:12;;;;;;;4.60;4.20;;;31.30;83.60;;;;;;5034983;28;20413;-73
2022/07/25 07:58:38;;;;;;;5.07;4.60;;;31.60;83.20;;;;;;5035251;28;20733;-73
2022/07/25 08:01:04;;;;;;;6.93;4.57;;;31.80;82.70;;;;;;5035214;28;20421;-73
2022/07/25 08:03:29;;;;;;;4.40;3.90;;;32.00;82.50;;;;;;5035077;28;20196;-72
2022/07/25 08:05:55;;;;;;;4.80;4.13;;;32.20;79.80;;;;;;5034925;28;20751;-71
2022/07/25 08:08:20;;;;;;;4.43;4.03;;;32.10;78.90;;;;;;5034857;28;20164;-71
2022/07/25 08:10:47;;;;;;;5.00;4.20;;;32.00;78.50;;;;;;5035046;28;20183;-71
2022/07/25 08:13:14;;;;;;;4.27;3.87;;;31.70;80.60;;;;;;5034643;28;20163;-71
2022/07/25 08:15:40;;;;;;;5.20;3.60;;;31.60;80.20;;;;;;5034693;28;20895;-71
2022/07/25 08:18:06;;;;;;;5.97;4.63;;;31.30;82.00;;;;;;5035029;28;20433;-71
2022/07/25 08:20:31;;;;;;;4.30;3.90;;;31.10;81.00;;;;;;5049877;28;20469;-71
2022/07/25 08:22:57;;;;;;;6.80;4.63;;;30.90;80.60;;;;;;5034670;28;20218;-71
2022/07/25 08:25:22;;;;;;;4.83;4.30;;;30.70;83.80;;;;;;5034127;28;20200;-71
2022/07/25 08:27:48;;;;;;;4.03;3.63;;;30.50;84.00;;;;;;5034383;28;20243;-71
2022/07/25 08:30:15;;;;;;;4.10;3.60;;;30.50;86.80;;;;;;5034336;28;20270;-71
2022/07/25 08:32:53;;;;;;;4.00;3.57;;;30.50;85.30;;;;;;5034357;28;20741;-71
2022/07/25 08:35:20;;;;;;;3.57;3.27;;;30.20;83.00;;;;;;5034100;28;20410;-71
2022/07/25 08:37:46;;;;;;;4.17;3.70;;;30.10;87.00;;;;;;5034252;28;20403;-71
2022/07/25 08:40:14;;;;;;;5.27;4.77;;;30.00;88.20;;;;;;5034314;28;20426;-71
2022/07/25 08:42:40;;;;;;;4.73;3.93;;;30.00;91.40;;;;;;5033410;28;20425;-71
2022/07/25 08:45:09;;;;;;;5.03;3.70;;;29.80;88.40;;;;;;5033573;28;20446;-71
2022/07/25 08:47:35;;;;;;;4.23;3.80;;;29.80;91.10;;;;;;5033113;28;20456;-71
2022/07/25 08:50:07;;;;;;;5.07;4.10;;;29.80;90.20;;;;;;5038369;28;20445;-71
2022/07/25 08:52:34;;;;;;;4.87;4.27;;;29.70;90.70;;;;;;5039402;28;20442;-71
2022/07/25 08:55:01;;;;;;;5.60;3.90;;;29.90;91.80;;;;;;5042053;28;20433;-71
2022/07/25 08:57:27;;;;;;;5.27;3.83;;;30.00;92.70;;;;;;5033826;28;20488;-72
2022/07/25 08:59:56;;;;;;;4.73;4.17;;;30.30;91.30;;;;;;5033384;28;20493;-71
2022/07/25 09:02:21;;;;;;;4.30;3.90;;;31.30;92.10;;;;;;5033848;28;20434;-71
2022/07/25 09:04:48;;;;;;;4.10;3.70;;;32.80;84.80;;;;;;5033166;28;20560;-71
2022/07/25 09:07:13;;;;;;;5.10;3.93;;;34.30;77.40;;;;;;5035122;28;20309;-72
2022/07/25 09:09:39;;;;;;;4.87;4.37;;;35.50;69.50;;;;;;5033092;28;20495;-72
2022/07/25 09:12:06;;;;;;;7.03;5.20;;;36.70;65.80;;;;;;5033531;28;20651;-72
2022/07/25 09:14:41;;;;;;;6.20;5.50;;;38.20;62.90;;;;;;5033459;28;21029;-72
2022/07/25 09:17:07;;;;;;;4.90;4.40;;;39.90;53.90;;;;;;5034002;28;20428;-72
2022/07/25 09:19:32;;;;;;;5.00;4.60;;;41.20;50.30;;;;;;5033209;28;20484;-72
2022/07/25 09:22:04;;;;;;;5.17;4.67;;;42.20;47.40;;;;;;5033389;28;20195;-72
2022/07/25 09:24:29;;;;;;;4.77;4.40;;;42.90;44.10;;;;;;5033219;28;20692;-72
2022/07/25 09:27:08;;;;;;;4.90;4.40;;;43.40;43.00;;;;;;5033097;28;20514;-72
2022/07/25 09:29:34;;;;;;;5.13;4.33;;;44.20;43.90;;;;;;5033355;28;20286;-72
2022/07/25 09:32:12;;;;;;;4.13;3.87;;;44.70;40.90;;;;;;5032540;28;20472;-72
2022/07/25 09:34:40;;;;;;;4.53;4.23;;;44.10;38.20;;;;;;5033471;28;21486;-72
2022/07/25 09:37:08;;;;;;;5.10;4.70;;;42.50;39.40;;;;;;5033338;28;20408;-72
2022/07/25 09:39:40;;;;;;;5.70;4.37;;;41.10;41.40;;;;;;5033165;28;20404;-71
2022/07/25 09:42:31;;;;;;;4.40;4.10;;;39.70;43.30;;;;;;5032431;28;20445;-71
2022/07/25 09:45:12;;;;;;;4.80;4.40;;;38.20;44.70;;;;;;5034187;28;20434;-71
2022/07/25 09:48:02;;;;;;;4.30;3.90;;;36.80;46.30;;;;;;5032270;28;20513;-71
2022/07/25 09:50:31;;;;;;;4.93;4.53;;;35.70;49.00;;;;;;5031779;28;21125;-71
2022/07/25 09:52:59;;;;;;;4.30;3.90;;;34.80;50.40;;;;;;5025700;28;20405;-71
2022/07/25 09:55:25;;;;;;;5.20;4.63;;;33.90;50.80;;;;;;5034891;28;20432;-71
2022/07/25 09:57:53;;;;;;;4.43;4.03;;;33.00;52.50;;;;;;5038140;28;20414;-71
2022/07/25 10:00:22;;;;;;;4.57;3.90;;;32.20;54.80;;;;;;5035526;28;20591;-71
2022/07/25 10:02:54;;;;;;;4.20;3.80;;;31.70;57.30;;;;;;5032754;28;20448;-71
2022/07/25 10:05:26;;;;;;;4.50;4.10;;;31.00;59.60;;;;;;5033141;28;20461;-71
2022/07/25 10:07:54;;;;;;;5.23;4.50;;;30.60;62.10;;;;;;5028841;28;20411;-71
2022/07/25 10:10:31;;;;;;;5.40;4.20;;;30.10;64.40;;;;;;5012754;28;20477;-71
2022/07/25 10:13:14;;;;;;;4.03;3.70;;;29.60;67.60;;;;;;5033468;28;20406;-71
2022/07/25 10:15:51;;;;;;;5.77;3.97;;;29.20;72.40;;;;;;5032278;28;20414;-71
2022/07/25 10:18:20;;;;;;;4.27;3.50;;;28.90;77.90;;;;;;5035840;28;20438;-71
2022/07/25 10:20:49;;;;;;;3.50;3.20;;;28.80;80.50;;;;;;5040623;28;20449;-71
2022/07/25 10:23:24;;;;;;;4.27;3.57;;;28.50;82.60;;;;;;5033896;28;20437;-71
2022/07/25 10:26:12;;;;;;;3.70;3.30;;;28.30;86.10;;;;;;5032109;28;20541;-71
2022/07/25 10:28:48;;;;;;;5.70;3.83;;;28.00;89.00;;;;;;5032284;28;20402;-71
2022/07/25 10:31:38;;;;;;;8.20;3.80;;;28.00;91.70;;;;;;5032142;28;20441;-71
2022/07/25 10:34:08;;;;;;;5.83;3.63;;;28.20;93.90;;;;;;5034052;28;20992;-71
2022/07/25 10:36:46;;;;;;;6.10;4.43;;;29.10;99.20;;;;;;5031778;28;20794;-71
2022/07/25 10:39:14;;;;;;;3.53;3.23;;;30.90;92.30;;;;;;5031458;28;20796;-71
2022/07/25 10:41:43;;;;;;;3.50;3.20;;;32.80;82.40;;;;;;5032032;28;20959;-71
2022/07/25 10:44:13;;;;;;;4.30;3.90;;;34.80;67.70;;;;;;5033327;28;20447;-72
2022/07/25 10:46:42;;;;;;;3.70;3.23;;;36.00;58.30;;;;;;5031821;28;20438;-72
2022/07/25 10:49:16;;;;;;;4.47;4.03;;;36.70;53.90;;;;;;5030089;28;20943;-72
2022/07/25 10:51:54;;;;;;;3.40;3.10;;;37.10;53.50;;;;;;5035492;28;20799;-69
2022/07/25 10:54:21;;;;;;;4.10;3.70;;;37.60;51.10;;;;;;5031444;28;20494;-69
2022/07/25 10:56:55;;;;;;;3.73;3.10;;;38.00;51.70;;;;;;5032027;28;20419;-69
2022/07/25 10:59:25;;;;;;;3.80;3.50;;;39.10;48.70;;;;;;5031714;28;20377;-69
2022/07/25 11:01:52;;;;;;;4.40;4.10;;;40.30;47.50;;;;;;5033342;28;20404;-70
2022/07/25 11:04:18;;;;;;;7.33;6.30;;;41.20;45.60;;;;;;5030681;28;20468;-70
2022/07/25 11:06:44;;;;;;;3.67;3.37;;;40.80;43.90;;;;;;5030573;28;20988;-69
2022/07/25 11:09:21;;;;;;;4.33;4.03;;;39.90;43.60;;;;;;5031592;28;20528;-69
2022/07/25 11:11:49;;;;;;;3.97;3.67;;;38.70;44.40;;;;;;5032780;28;20673;-69
2022/07/25 11:14:17;;;;;;;4.90;3.00;;;37.70;45.50;;;;;;5023446;28;20422;-69
2022/07/25 11:16:43;;;;;;;4.30;3.53;;;37.20;46.50;;;;;;5031603;28;20410;-69
2022/07/25 11:19:39;;;;;;;3.13;2.83;;;36.80;47.20;;;;;;5031034;28;20406;-69
2022/07/25 11:22:05;;;;;;;3.30;2.87;;;36.50;47.50;;;;;;5022446;28;20497;-69
2022/07/25 11:24:42;;;;;;;3.43;2.93;;;36.50;48.50;;;;;;5031155;28;20613;-69
2022/07/25 11:27:10;;;;;;;3.37;3.07;;;36.70;47.50;;;;;;5031483;28;20507;-69
2022/07/25 11:29:37;;;;;;;3.03;2.30;;;36.70;46.20;;;;;;5033548;28;20493;-72
2022/07/25 11:32:06;;;;;;;3.20;2.97;;;36.50;48.30;;;;;;5030111;28;20799;-72
2022/07/25 11:34:40;;;;;;;3.20;2.90;;;36.30;47.40;;;;;;5030572;28;20438;-72
2022/07/25 11:37:07;;;;;;;6.20;3.27;;;36.20;46.60;;;;;;5030683;28;20426;-72
2022/07/25 11:39:35;;;;;;;3.30;2.70;;;35.80;47.10;;;;;;5029995;28;20438;-72
2022/07/25 11:42:04;;;;;;;4.50;3.27;;;36.00;48.00;;;;;;5031438;28;20410;-72
2022/07/25 11:44:38;;;;;;;3.30;2.97;;;36.60;48.40;;;;;;5031031;28;20468;-72
2022/07/25 11:47:06;;;;;;;2.93;2.43;;;37.20;45.70;;;;;;5033162;28;21131;-72
2022/07/25 11:49:46;;;;;;;5.40;3.43;;;37.40;45.00;;;;;;5031276;28;20475;-72
2022/07/25 11:52:20;;;;;;;6.70;6.10;;;37.70;45.80;;;;;;5030566;28;20453;-72
2022/07/25 11:54:57;;;;;;;6.07;3.53;;;38.30;43.80;;;;;;5030947;28;21038;-72
2022/07/25 11:57:27;;;;;;;4.70;3.20;;;38.70;42.80;;;;;;5033082;28;20404;-72
2022/07/25 11:59:54;;;;;;;3.60;2.40;;;39.20;43.10;;;;;;5046356;28;20445;-72
2022/07/25 12:02:27;;;;;;;2.77;2.57;;;39.80;42.10;;;;;;5031304;28;20434;-72
2022/07/25 12:04:55;;;;;;;4.07;2.57;;;40.30;40.70;;;;;;5030527;28;20428;-72
2022/07/25 12:07:21;;;;;;;3.17;2.87;;;40.90;41.40;;;;;;5033379;28;20385;-72
2022/07/25 12:09:57;;;;;;;3.40;3.10;;;41.10;40.20;;;;;;5031040;28;21005;-72
2022/07/25 12:12:22;;;;;;;3.27;2.97;;;41.40;39.60;;;;;;5031138;28;20172;-72
2022/07/25 12:14:48;;;;;;;2.63;2.43;;;41.00;39.20;;;;;;5030975;28;20405;-72
2022/07/25 12:17:13;;;;;;;3.40;3.10;;;40.50;39.70;;;;;;5032855;28;20180;-72
2022/07/25 12:19:43;;;;;;;3.03;2.60;;;40.10;41.60;;;;;;5033232;28;20274;-72
2022/07/25 12:22:09;;;;;;;2.80;2.60;;;40.30;41.90;;;;;;5026460;28;20172;-72
2022/07/25 12:24:34;;;;;;;3.00;2.70;;;40.20;41.40;;;;;;5034293;28;20969;-72
2022/07/25 12:27:00;;;;;;;3.00;2.80;;;39.90;41.10;;;;;;5036145;28;20180;-72
2022/07/25 12:29:25;;;;;;;4.40;2.43;;;39.40;42.00;;;;;;5034392;28;20225;-72
2022/07/25 12:31:51;;;;;;;3.23;2.97;;;38.90;42.50;;;;;;5034514;28;20568;-72
2022/07/25 12:34:16;;;;;;;2.73;1.83;;;38.50;43.10;;;;;;5034203;28;20649;-72
2022/07/25 12:36:43;;;;;;;2.77;2.20;;;37.90;43.70;;;;;;5049071;28;20179;-72
2022/07/25 12:39:10;;;;;;;2.67;2.47;;;37.70;44.90;;;;;;5029502;28;20210;-72
2022/07/25 12:41:35;;;;;;;3.50;3.20;;;38.50;45.50;;;;;;5033725;28;20458;-72
2022/07/25 12:44:03;;;;;;;6.10;2.43;;;39.40;43.80;;;;;;5037100;28;21201;-72
2022/07/25 12:46:28;;;;;;;2.10;1.90;;;40.20;43.40;;;;;;5033977;28;20172;-72
2022/07/25 12:48:54;;;;;;;4.90;4.60;;;40.80;42.60;;;;;;5034377;28;20922;-72